Time;durP1;ratioP1;P1;durP2;ratioP2;P2;SDS_P1;SDS_P2;PMS_P1;PMS_P2;Temp;Humidity;BMP_temperature;BMP_pressure;BME280_temperature;BME280_humidity;BME280_pressure;Samples;Min_cycle;Max_cycle;Signal;HPM_P1;HPM_P2
2021/12/24 00:01:15;;;;;;;74.20;26.83;;;;;;;-145.67;100.00;66521.78;4986186;28;20076;-72
2021/12/24 00:03:41;;;;;;;95.18;26.02;;;;;;;-145.67;100.00;66521.78;4994782;28;20465;-71
2021/12/24 00:06:08;;;;;;;99.15;28.13;;;;;;;-145.67;100.00;66521.78;5010860;28;20028;-71
2021/12/24 00:08:36;;;;;;;98.70;29.05;;;;;;;-145.67;100.00;66521.78;4998584;28;20041;-72
2021/12/24 00:11:03;;;;;;;89.70;26.88;;;;;;;-145.67;100.00;66521.78;5009767;28;20046;-71
2021/12/24 00:13:38;;;;;;;87.78;27.88;;;;;;;-145.67;100.00;66521.78;4999038;28;20038;-73
2021/12/24 00:18:43;;;;;;;111.88;31.20;;;;;;;-145.67;100.00;66521.78;5008994;28;20042;-70
2021/12/24 00:22:16;;;;;;;124.40;34.17;;;;;;;-145.67;100.00;66521.78;5009959;28;20041;-70
2021/12/24 00:35:15;;;;;;;132.27;34.90;;;;;;;-145.67;100.00;66521.78;4995097;28;20037;-71
2021/12/24 00:37:48;;;;;;;118.60;35.88;;;;;;;-145.67;100.00;66521.78;4993722;28;20479;-71
2021/12/24 00:40:18;;;;;;;134.93;36.33;;;;;;;-145.67;100.00;66521.78;4998833;28;20125;-69
2021/12/24 00:42:52;;;;;;;116.78;34.85;;;;;;;-145.67;100.00;66521.78;4994496;28;20037;-70
2021/12/24 00:45:20;;;;;;;124.72;36.45;;;;;;;-145.67;100.00;66521.78;4994686;28;20420;-70
2021/12/24 00:47:46;;;;;;;118.95;34.78;;;;;;;-145.67;100.00;66521.78;4999975;28;20236;-70
2021/12/24 00:50:19;;;;;;;130.30;35.38;;;;;;;-145.67;100.00;66521.78;5008129;28;20037;-70
2021/12/24 00:52:49;;;;;;;125.60;34.20;;;;;;;-145.67;100.00;66521.78;4994137;28;20069;-70
2021/12/24 00:55:21;;;;;;;133.90;35.15;;;;;;;-145.67;100.00;66521.78;4994355;28;20152;-71
2021/12/24 00:57:57;;;;;;;120.78;33.70;;;;;;;-145.67;100.00;66521.78;4992790;28;20082;-71
2021/12/24 01:00:24;;;;;;;126.25;34.75;;;;;;;-145.67;100.00;66521.78;5001997;28;20033;-70
2021/12/24 01:02:51;;;;;;;124.03;35.40;;;;;;;-145.67;100.00;66521.78;4995348;28;20489;-70
2021/12/24 01:05:18;;;;;;;134.00;34.83;;;;;;;-145.67;100.00;66521.78;4998840;28;20038;-70
2021/12/24 01:07:48;;;;;;;119.20;33.55;;;;;;;-145.67;100.00;66521.78;5001736;28;20033;-69
2021/12/24 01:10:15;;;;;;;131.18;33.58;;;;;;;-145.67;100.00;66521.78;4994210;28;20033;-70
2021/12/24 01:12:40;;;;;;;142.43;34.85;;;;;;;-145.67;100.00;66521.78;4994641;28;20022;-69
2021/12/24 01:15:09;;;;;;;116.45;34.20;;;;;;;-145.67;100.00;66521.78;4998230;28;20038;-70
2021/12/24 01:17:56;;;;;;;117.70;33.50;;;;;;;-145.67;100.00;66521.78;4998173;28;20515;-69
2021/12/24 01:20:27;;;;;;;115.93;34.05;;;;;;;-145.67;100.00;66521.78;4994843;28;20975;-69
2021/12/24 01:28:14;;;;;;;118.53;33.75;;;;;;;-145.67;100.00;66521.78;4995594;28;20190;-69
2021/12/24 01:39:26;;;;;;;123.13;32.50;;;;;;;-145.67;100.00;66521.78;4992661;28;20038;-69
2021/12/24 01:44:40;;;;;;;107.85;30.92;;;;;;;-145.67;100.00;66521.78;4998471;28;20254;-71
2021/12/24 01:47:09;;;;;;;102.00;31.40;;;;;;;-145.67;100.00;66521.78;4993498;28;20475;-71
2021/12/24 01:49:35;;;;;;;104.10;30.63;;;;;;;-145.67;100.00;66521.78;4994762;28;20042;-70
2021/12/24 01:52:02;;;;;;;86.70;29.50;;;;;;;-145.67;100.00;66521.78;5001803;28;20738;-71
2021/12/24 01:54:28;;;;;;;90.15;29.58;;;;;;;-145.67;100.00;66521.78;4993903;28;20084;-71
2021/12/24 01:56:53;;;;;;;110.10;32.13;;;;;;;-145.67;100.00;66521.78;4995466;28;20160;-70
2021/12/24 01:59:19;;;;;;;89.63;29.85;;;;;;;-145.67;100.00;66521.78;4995887;28;20034;-70
2021/12/24 02:01:44;;;;;;;98.03;30.23;;;;;;;-145.67;100.00;66521.78;4994421;28;20037;-71
2021/12/24 02:04:14;;;;;;;108.53;29.77;;;;;;;-145.67;100.00;66521.78;5009293;28;20037;-71
2021/12/24 02:06:43;;;;;;;90.50;28.95;;;;;;;-145.67;100.00;66521.78;4994096;28;20026;-71
2021/12/24 02:09:11;;;;;;;94.03;27.98;;;;;;;-145.67;100.00;66521.78;4998803;28;20209;-71
2021/12/24 02:11:38;;;;;;;89.63;28.50;;;;;;;-145.67;100.00;66521.78;4994522;28;20126;-71
2021/12/24 02:14:09;;;;;;;96.40;28.67;;;;;;;-145.67;100.00;66521.78;4996094;28;20509;-71
2021/12/24 02:30:07;;;;;;;87.80;26.48;;;;;;;-145.67;100.00;66521.78;4992384;28;20065;-71
2021/12/24 02:32:33;;;;;;;91.60;26.25;;;;;;;-145.67;100.00;66521.78;5000433;28;20044;-71
2021/12/24 02:34:58;;;;;;;96.53;26.70;;;;;;;-145.67;100.00;66521.78;4990613;28;20037;-71
2021/12/24 02:37:26;;;;;;;84.28;25.90;;;;;;;-145.67;100.00;66521.78;4991075;28;20215;-71
2021/12/24 02:39:56;;;;;;;94.60;25.35;;;;;;;-145.67;100.00;66521.78;4992389;28;20195;-71
2021/12/24 02:42:23;;;;;;;86.53;26.17;;;;;;;-145.67;100.00;66521.78;4994290;28;20091;-71
2021/12/24 02:44:50;;;;;;;91.07;24.83;;;;;;;-145.67;100.00;66521.78;4998024;28;20405;-71
2021/12/24 02:54:57;;;;;;;79.10;23.77;;;;;;;-145.67;100.00;66521.78;4991289;28;20038;-71
2021/12/24 02:57:27;;;;;;;85.07;23.98;;;;;;;-145.67;100.00;66521.78;4991169;28;20039;-71
2021/12/24 03:00:06;;;;;;;87.78;24.63;;;;;;;-145.67;100.00;66521.78;4991388;28;20065;-71
2021/12/24 03:02:33;;;;;;;96.82;24.08;;;;;;;-145.67;100.00;66521.78;5005410;28;20029;-71
2021/12/24 03:04:59;;;;;;;78.53;22.77;;;;;;;-145.67;100.00;66521.78;4989830;28;20465;-72
2021/12/24 03:07:26;;;;;;;92.00;22.98;;;;;;;-145.67;100.00;66521.78;5007782;28;20073;-71
2021/12/24 03:09:53;;;;;;;89.30;22.92;;;;;;;-145.67;100.00;66521.78;5005607;28;20065;-71
2021/12/24 03:12:19;;;;;;;78.25;22.52;;;;;;;-145.67;100.00;66521.78;5006329;28;20555;-71
2021/12/24 03:14:44;;;;;;;82.45;22.75;;;;;;;-145.67;100.00;66521.78;4992337;28;20041;-71
2021/12/24 03:17:17;;;;;;;81.70;21.33;;;;;;;-145.67;100.00;66521.78;5006487;28;20045;-71
2021/12/24 03:19:43;;;;;;;79.05;22.55;;;;;;;-145.67;100.00;66521.78;4991262;28;20045;-71
2021/12/24 03:24:37;;;;;;;78.93;23.60;;;;;;;-145.67;100.00;66521.78;4991469;28;20033;-71
2021/12/24 03:27:04;;;;;;;85.38;22.83;;;;;;;-145.67;100.00;66521.78;4991668;28;20640;-71
2021/12/24 03:29:30;;;;;;;87.75;21.90;;;;;;;-145.67;100.00;66521.78;4980464;28;20469;-71
2021/12/24 03:31:56;;;;;;;77.60;20.25;;;;;;;-145.67;100.00;66521.78;4992968;28;20138;-71
2021/12/24 03:34:22;;;;;;;87.05;21.60;;;;;;;-145.67;100.00;66521.78;4991188;28;20548;-70
2021/12/24 03:36:48;;;;;;;87.35;21.33;;;;;;;-145.67;100.00;66521.78;4990992;28;20045;-71
2021/12/24 03:39:14;;;;;;;79.22;21.30;;;;;;;-145.67;100.00;66521.78;4991418;28;20038;-71
2021/12/24 03:41:40;;;;;;;87.65;22.40;;;;;;;-145.67;100.00;66521.78;5006952;28;20033;-71
2021/12/24 03:44:13;;;;;;;83.70;21.15;;;;;;;-145.67;100.00;66521.78;4991162;28;20076;-70
2021/12/24 03:46:54;;;;;;;73.10;19.48;;;;;;;-145.67;100.00;66521.78;4996452;28;20065;-70
2021/12/24 03:49:34;;;;;;;89.35;21.08;;;;;;;-145.67;100.00;66521.78;5003580;28;20288;-71
2021/12/24 03:54:58;;;;;;;81.38;18.58;;;;;;;-145.67;100.00;66521.78;4997860;28;20429;-71
2021/12/24 03:57:35;;;;;;;85.18;18.55;;;;;;;-145.67;100.00;66521.78;5005416;28;20040;-70
2021/12/24 04:00:21;;;;;;;81.68;18.52;;;;;;;-145.67;100.00;66521.78;4991030;28;20029;-70
2021/12/24 04:02:52;;;;;;;65.53;17.77;;;;;;;-145.67;100.00;66521.78;4992044;28;20041;-71
2021/12/24 04:05:20;;;;;;;74.75;17.23;;;;;;;-145.67;100.00;66521.78;4990849;28;20022;-71
2021/12/24 04:07:46;;;;;;;89.75;18.52;;;;;;;-145.67;100.00;66521.78;4990600;28;20400;-71
2021/12/24 04:10:32;;;;;;;69.30;19.05;;;;;;;-145.67;100.00;66521.78;4989943;28;20703;-71
2021/12/24 04:12:57;;;;;;;83.60;17.50;;;;;;;-145.67;100.00;66521.78;4987775;28;20029;-71
2021/12/24 04:15:25;;;;;;;76.00;16.60;;;;;;;-145.67;100.00;66521.78;4992177;28;20069;-72
2021/12/24 04:17:55;;;;;;;68.97;17.35;;;;;;;-145.67;100.00;66521.78;4990650;28;20033;-71
2021/12/24 04:25:54;;;;;;;76.07;16.13;;;;;;;-145.67;100.00;66521.78;4992108;28;20177;-71
2021/12/24 04:28:20;;;;;;;58.60;14.55;;;;;;;-145.67;100.00;66521.78;4990200;28;20461;-71
2021/12/24 04:30:50;;;;;;;87.40;16.40;;;;;;;-145.67;100.00;66521.78;4991256;28;20117;-72
2021/12/24 04:33:35;;;;;;;72.88;14.90;;;;;;;-145.67;100.00;66521.78;4990136;28;20096;-70
2021/12/24 04:36:18;;;;;;;;;;;;;;;-145.67;100.00;66521.78;4992105;28;20128;-70
2021/12/24 05:03:27;;;;;;;58.92;12.35;;;;;;;-145.67;100.00;66521.78;4992300;28;20405;-70
2021/12/24 05:06:06;;;;;;;76.25;13.52;;;;;;;-145.67;100.00;66521.78;4994210;28;20045;-71
2021/12/24 05:08:40;;;;;;;72.40;13.02;;;;;;;-145.67;100.00;66521.78;4996575;28;20084;-70
2021/12/24 05:11:10;;;;;;;68.82;11.90;;;;;;;-145.67;100.00;66521.78;4993608;28;20150;-70
2021/12/24 05:13:37;;;;;;;67.70;12.18;;;;;;;-145.67;100.00;66521.78;4993803;28;20041;-69
2021/12/24 05:16:13;;;;;;;60.72;12.95;;;;;;;-145.67;100.00;66521.78;4997130;28;20045;-69
2021/12/24 05:21:35;;;;;;;62.42;11.80;;;;;;;-145.67;100.00;66521.78;4993641;28;20049;-70
2021/12/24 05:24:12;;;;;;;63.58;11.98;;;;;;;-145.67;100.00;66521.78;5001644;28;20236;-69
2021/12/24 05:26:42;;;;;;;63.08;11.60;;;;;;;-145.67;100.00;66521.78;4993748;28;20083;-70
2021/12/24 05:29:08;;;;;;;61.58;10.70;;;;;;;-145.67;100.00;66521.78;5008650;28;20038;-70
2021/12/24 05:31:34;;;;;;;63.55;11.13;;;;;;;-145.67;100.00;66521.78;4993961;28;20147;-70
2021/12/24 05:34:02;;;;;;;64.30;11.50;;;;;;;-145.67;100.00;66521.78;4992083;28;20048;-70
2021/12/24 05:36:33;;;;;;;56.35;11.32;;;;;;;-145.67;100.00;66521.78;4991628;28;20060;-70
2021/12/24 05:39:00;;;;;;;65.75;11.75;;;;;;;-145.67;100.00;66521.78;4993835;28;20469;-70
2021/12/24 05:41:29;;;;;;;60.70;10.32;;;;;;;-145.67;100.00;66521.78;4991281;28;20029;-71
2021/12/24 05:43:58;;;;;;;58.40;10.48;;;;;;;-145.67;100.00;66521.78;4993100;28;20029;-70
2021/12/24 05:46:24;;;;;;;72.65;10.13;;;;;;;-145.67;100.00;66521.78;5008560;28;21994;-70
2021/12/24 05:48:50;;;;;;;68.00;11.38;;;;;;;-145.67;100.00;66521.78;4997493;28;20506;-70
2021/12/24 05:51:18;;;;;;;67.40;10.23;;;;;;;-145.67;100.00;66521.78;4993325;28;20474;-70
2021/12/24 05:53:46;;;;;;;65.90;9.70;;;;;;;-145.67;100.00;66521.78;4991535;28;20026;-71
2021/12/24 05:56:14;;;;;;;67.97;10.80;;;;;;;-145.67;100.00;66521.78;4997373;28;20049;-70
2021/12/24 05:58:40;;;;;;;58.00;9.50;;;;;;;-145.67;100.00;66521.78;4992739;28;20477;-70
2021/12/24 06:01:08;;;;;;;67.80;9.48;;;;;;;-145.67;100.00;66521.78;4993526;28;20073;-70
2021/12/24 06:03:34;;;;;;;69.68;10.65;;;;;;;-145.67;100.00;66521.78;4993057;28;20551;-70
2021/12/24 06:05:59;;;;;;;63.97;10.65;;;;;;;-145.67;100.00;66521.78;4995754;28;20048;-70
2021/12/24 06:08:25;;;;;;;71.05;10.23;;;;;;;-145.67;100.00;66521.78;5000610;28;20278;-71
2021/12/24 06:10:51;;;;;;;59.33;9.90;;;;;;;-145.67;100.00;66521.78;4991319;28;20839;-70
2021/12/24 06:13:19;;;;;;;57.88;9.35;;;;;;;-145.67;100.00;66521.78;5006549;28;20072;-71
2021/12/24 06:15:46;;;;;;;64.55;8.95;;;;;;;-145.67;100.00;66521.78;4992799;28;20042;-71
2021/12/24 06:18:23;;;;;;;54.67;9.65;;;;;;;-145.67;100.00;66521.78;4997672;28;20041;-72
2021/12/24 06:20:53;;;;;;;52.33;9.10;;;;;;;-145.67;100.00;66521.78;4991486;28;20037;-70
2021/12/24 06:23:21;;;;;;;59.92;9.60;;;;;;;-145.67;100.00;66521.78;5008056;28;20060;-74
2021/12/24 06:25:48;;;;;;;62.25;9.38;;;;;;;-145.67;100.00;66521.78;4993322;28;20046;-73
2021/12/24 06:28:18;;;;;;;64.22;10.68;;;;;;;-145.67;100.00;66521.78;4990771;28;20045;-71
2021/12/24 06:30:44;;;;;;;64.35;9.93;;;;;;;-145.67;100.00;66521.78;4993114;28;20620;-71
2021/12/24 06:33:13;;;;;;;74.30;10.55;;;;;;;-145.67;100.00;66521.78;4992482;28;20033;-71
2021/12/24 06:35:38;;;;;;;70.72;9.85;;;;;;;-145.67;100.00;66521.78;4992917;28;20049;-71
2021/12/24 06:38:04;;;;;;;75.25;11.10;;;;;;;-145.67;100.00;66521.78;4991263;28;20053;-72
2021/12/24 06:40:33;;;;;;;63.40;8.75;;;;;;;-145.67;100.00;66521.78;5007385;28;20511;-71
2021/12/24 06:43:01;;;;;;;64.25;10.55;;;;;;;-145.67;100.00;66521.78;4993300;28;20048;-70
2021/12/24 06:45:29;;;;;;;65.03;9.43;;;;;;;-145.67;100.00;66521.78;4997536;28;20036;-71
2021/12/24 06:47:57;;;;;;;65.28;9.75;;;;;;;-145.67;100.00;66521.78;4998215;28;20305;-71
2021/12/24 06:50:23;;;;;;;79.55;9.82;;;;;;;-145.67;100.00;66521.78;4996268;28;21929;-70
2021/12/24 06:52:49;;;;;;;58.85;9.77;;;;;;;-145.67;100.00;66521.78;4992621;28;20097;-71
2021/12/24 06:55:14;;;;;;;62.20;10.25;;;;;;;-145.67;100.00;66521.78;4991784;28;20478;-71
2021/12/24 06:57:41;;;;;;;65.28;10.30;;;;;;;-145.67;100.00;66521.78;5006293;28;20496;-71
2021/12/24 07:00:13;;;;;;;64.20;10.27;;;;;;;-145.67;100.00;66521.78;4989320;28;20647;-70
2021/12/24 07:02:38;;;;;;;73.78;10.70;;;;;;;-145.67;100.00;66521.78;4991932;28;20030;-70
2021/12/24 07:05:04;;;;;;;65.07;10.35;;;;;;;-145.67;100.00;66521.78;4991019;28;20122;-72
2021/12/24 07:07:30;;;;;;;60.20;10.45;;;;;;;-145.67;100.00;66521.78;4991013;28;22071;-70
2021/12/24 07:09:58;;;;;;;63.78;11.13;;;;;;;-145.67;100.00;66521.78;4991423;28;20057;-71
2021/12/24 07:12:25;;;;;;;58.67;11.35;;;;;;;-145.67;100.00;66521.78;4990593;28;20143;-70
2021/12/24 07:14:51;;;;;;;63.83;10.38;;;;;;;-145.67;100.00;66521.78;5005994;28;20868;-71
2021/12/24 07:17:17;;;;;;;62.60;11.80;;;;;;;-145.67;100.00;66521.78;4990828;28;20987;-70
2021/12/24 07:19:44;;;;;;;66.57;12.20;;;;;;;-145.67;100.00;66521.78;4990307;28;20278;-70
2021/12/24 07:22:14;;;;;;;70.00;11.98;;;;;;;-145.67;100.00;66521.78;4991525;28;20107;-70
2021/12/24 07:24:40;;;;;;;58.83;10.88;;;;;;;-145.67;100.00;66521.78;4991593;28;20488;-70
2021/12/24 07:27:06;;;;;;;55.17;10.77;;;;;;;-145.67;100.00;66521.78;4991396;28;20068;-71
2021/12/24 07:29:34;;;;;;;58.30;10.60;;;;;;;-145.67;100.00;66521.78;4990141;28;20054;-70
2021/12/24 07:32:00;;;;;;;73.50;12.73;;;;;;;-145.67;100.00;66521.78;4989971;28;20033;-70
2021/12/24 07:34:25;;;;;;;54.35;10.40;;;;;;;-145.67;100.00;66521.78;4991632;28;20038;-69
2021/12/24 07:36:53;;;;;;;63.80;11.50;;;;;;;-145.67;100.00;66521.78;4991161;28;20500;-70
2021/12/24 07:39:21;;;;;;;64.20;11.13;;;;;;;-145.67;100.00;66521.78;4992722;28;20037;-71
2021/12/24 07:41:50;;;;;;;65.47;10.30;;;;;;;-145.67;100.00;66521.78;4988312;28;20732;-74
2021/12/24 07:44:20;;;;;;;66.82;11.27;;;;;;;-145.67;100.00;66521.78;4992709;28;20041;-70
2021/12/24 07:46:50;;;;;;;71.95;10.93;;;;;;;-145.67;100.00;66521.78;4982768;28;20039;-71
2021/12/24 07:52:11;;;;;;;61.38;10.00;;;;;;;-145.67;100.00;66521.78;5004260;28;20080;-71
2021/12/24 07:54:48;;;;;;;72.00;11.68;;;;;;;-145.67;100.00;66521.78;4991337;28;20041;-71
2021/12/24 07:57:16;;;;;;;62.33;11.32;;;;;;;-145.67;100.00;66521.78;5005699;28;20049;-71
2021/12/24 07:59:43;;;;;;;72.05;11.65;;;;;;;-145.67;100.00;66521.78;4991300;28;20041;-71
2021/12/24 08:02:15;;;;;;;78.82;10.95;;;;;;;-145.67;100.00;66521.78;4991428;28;20160;-71
2021/12/24 08:04:44;;;;;;;60.72;11.63;;;;;;;-145.67;100.00;66521.78;4998402;28;20901;-71
2021/12/24 08:07:12;;;;;;;71.68;10.95;;;;;;;-145.67;100.00;66521.78;4996365;28;20033;-71
2021/12/24 08:09:38;;;;;;;69.78;11.93;;;;;;;-145.67;100.00;66521.78;4990618;28;20045;-71
2021/12/24 08:12:07;;;;;;;57.63;10.57;;;;;;;-145.67;100.00;66521.78;4990233;28;20057;-71
2021/12/24 08:14:33;;;;;;;74.78;11.55;;;;;;;-145.67;100.00;66521.78;4990745;28;20034;-71
2021/12/24 08:17:01;;;;;;;63.63;10.57;;;;;;;-145.67;100.00;66521.78;4991825;28;20045;-71
2021/12/24 08:19:29;;;;;;;69.15;11.60;;;;;;;-145.67;100.00;66521.78;4995580;28;20034;-70
2021/12/24 08:21:58;;;;;;;75.85;11.15;;;;;;;-145.67;100.00;66521.78;5008484;28;20109;-71
2021/12/24 08:24:26;;;;;;;73.38;11.65;;;;;;;-145.67;100.00;66521.78;4994953;28;20128;-71
2021/12/24 08:26:54;;;;;;;69.80;11.07;;;;;;;-145.67;100.00;66521.78;4998039;28;20156;-72
2021/12/24 08:29:21;;;;;;;66.55;9.88;;;;;;;-145.67;100.00;66521.78;4994423;28;20038;-71
2021/12/24 08:31:48;;;;;;;73.05;10.75;;;;;;;-145.67;100.00;66521.78;4995029;28;20639;-72
2021/12/24 08:34:15;;;;;;;77.95;12.00;;;;;;;-145.67;100.00;66521.78;4995932;28;20030;-71
2021/12/24 08:36:41;;;;;;;70.20;10.43;;;;;;;-145.67;100.00;66521.78;4993970;28;20116;-71
2021/12/24 08:39:10;;;;;;;69.63;11.27;;;;;;;-145.67;100.00;66521.78;5008552;28;20211;-70
2021/12/24 08:41:35;;;;;;;62.03;10.75;;;;;;;-145.67;100.00;66521.78;4996902;28;20057;-70
2021/12/24 08:44:02;;;;;;;66.15;10.63;;;;;;;-145.67;100.00;66521.78;4993686;28;20053;-71
2021/12/24 08:46:27;;;;;;;66.00;11.00;;;;;;;-145.67;100.00;66521.78;4994275;28;20041;-73
2021/12/24 08:48:55;;;;;;;70.68;11.05;;;;;;;-145.67;100.00;66521.78;4993251;28;20087;-72
2021/12/24 08:51:21;;;;;;;72.28;11.77;;;;;;;-145.67;100.00;66521.78;4993910;28;20030;-73
2021/12/24 08:53:46;;;;;;;73.07;12.80;;;;;;;-145.67;100.00;66521.78;4991534;28;20292;-72
2021/12/24 08:56:14;;;;;;;75.07;11.07;;;;;;;-145.67;100.00;66521.78;4994608;28;20044;-72
2021/12/24 08:58:39;;;;;;;78.50;12.30;;;;;;;-145.67;100.00;66521.78;4991727;28;20920;-70
2021/12/24 09:01:06;;;;;;;60.03;12.23;;;;;;;-145.67;100.00;66521.78;4993905;28;20037;-70
2021/12/24 09:03:34;;;;;;;55.80;10.82;;;;;;;-145.67;100.00;66521.78;4993302;28;20200;-70
2021/12/24 09:06:02;;;;;;;81.40;11.80;;;;;;;-145.67;100.00;66521.78;4994149;28;20385;-70
2021/12/24 09:08:27;;;;;;;66.00;12.32;;;;;;;-145.67;100.00;66521.78;4993991;28;20106;-70
2021/12/24 09:10:55;;;;;;;63.95;12.43;;;;;;;-145.67;100.00;66521.78;4992960;28;20037;-71
2021/12/24 09:13:21;;;;;;;68.07;11.45;;;;;;;-145.67;100.00;66521.78;4994316;28;22225;-70
2021/12/24 09:15:46;;;;;;;77.88;13.10;;;;;;;-145.67;100.00;66521.78;4993364;28;20045;-71
2021/12/24 09:18:14;;;;;;;67.22;11.77;;;;;;;-145.67;100.00;66521.78;4991722;28;20029;-70
2021/12/24 09:20:43;;;;;;;64.35;12.40;;;;;;;-145.67;100.00;66521.78;5008384;28;20113;-70
2021/12/24 09:23:10;;;;;;;65.75;12.80;;;;;;;-145.67;100.00;66521.78;4994108;28;20445;-69
2021/12/24 09:25:35;;;;;;;66.45;11.88;;;;;;;-145.67;100.00;66521.78;4981301;28;20054;-70
2021/12/24 09:28:03;;;;;;;71.15;12.98;;;;;;;-145.67;100.00;66521.78;4991787;28;20995;-72
2021/12/24 09:30:29;;;;;;;62.67;12.43;;;;;;;-145.67;100.00;66521.78;4993136;28;20715;-70
2021/12/24 09:32:55;;;;;;;68.57;13.25;;;;;;;-145.67;100.00;66521.78;4999320;28;20096;-70
2021/12/24 09:35:21;;;;;;;73.45;13.30;;;;;;;-145.67;100.00;66521.78;4993889;28;20450;-71
2021/12/24 09:37:47;;;;;;;83.13;13.65;;;;;;;-145.67;100.00;66521.78;4998858;28;20052;-71
2021/12/24 09:40:14;;;;;;;69.32;12.80;;;;;;;-145.67;100.00;66521.78;4992170;28;20148;-70
2021/12/24 09:42:42;;;;;;;81.47;12.75;;;;;;;-145.67;100.00;66521.78;5007292;28;20071;-70
2021/12/24 09:45:10;;;;;;;62.50;12.40;;;;;;;-145.67;100.00;66521.78;4993481;28;20033;-71
2021/12/24 09:47:41;;;;;;;63.03;11.85;;;;;;;-145.67;100.00;66521.78;4995609;28;20033;-71
2021/12/24 09:50:08;;;;;;;63.70;12.93;;;;;;;-145.67;100.00;66521.78;4996839;28;20037;-71
2021/12/24 09:52:37;;;;;;;81.47;13.45;;;;;;;-145.67;100.00;66521.78;4992607;28;20036;-71
2021/12/24 09:55:13;;;;;;;70.57;11.30;;;;;;;-145.67;100.00;66521.78;4993711;28;20658;-70
2021/12/24 09:57:39;;;;;;;74.10;11.45;;;;;;;-145.67;100.00;66521.78;4993101;28;20304;-71
2021/12/24 10:00:06;;;;;;;49.65;11.05;;;;;;;-145.67;100.00;66521.78;4992631;28;20044;-70
2021/12/24 10:02:41;;;;;;;63.35;11.60;;;;;;;-145.67;100.00;66521.78;4992674;28;20041;-70
2021/12/24 10:05:28;;;;;;;58.05;10.10;;;;;;;-145.67;100.00;66521.78;4993672;28;20034;-71
2021/12/24 10:08:07;;;;;;;63.65;11.55;;;;;;;-145.67;100.00;66521.78;4992475;28;20088;-71
2021/12/24 10:10:34;;;;;;;55.88;12.60;;;;;;;-145.67;100.00;66521.78;4993264;28;20393;-71
2021/12/24 10:13:31;;;;;;;70.72;11.23;;;;;;;-145.67;100.00;66521.78;4991935;28;20084;-70
2021/12/24 10:15:58;;;;;;;61.60;11.25;;;;;;;-145.67;100.00;66521.78;5007641;28;20497;-70
2021/12/24 10:18:40;;;;;;;75.28;11.32;;;;;;;-145.67;100.00;66521.78;5006847;28;20037;-70
2021/12/24 10:21:09;;;;;;;66.45;10.75;;;;;;;-145.67;100.00;66521.78;4992811;28;20069;-70
2021/12/24 10:23:47;;;;;;;67.32;11.32;;;;;;;-145.67;100.00;66521.78;4992842;28;20037;-71
2021/12/24 10:26:32;;;;;;;77.35;12.70;;;;;;;-145.67;100.00;66521.78;4993110;28;20049;-71
2021/12/24 10:28:59;;;;;;;62.65;12.10;;;;;;;-145.67;100.00;66521.78;4990284;28;20091;-70
2021/12/24 10:31:51;;;;;;;59.78;9.93;;;;;;;-145.67;100.00;66521.78;4992020;28;20123;-69
2021/12/24 10:34:32;;;;;;;65.03;10.32;;;;;;;-145.67;100.00;66521.78;4995836;28;20081;-70
2021/12/24 10:37:11;;;;;;;60.97;11.10;;;;;;;-145.67;100.00;66521.78;4992123;28;20053;-71
2021/12/24 10:39:48;;;;;;;67.65;11.05;;;;;;;-145.67;100.00;66521.78;4997802;28;20044;-71
2021/12/24 10:42:27;;;;;;;72.45;11.95;;;;;;;-145.67;100.00;66521.78;4991632;28;20498;-71
2021/12/24 10:44:53;;;;;;;64.13;10.40;;;;;;;-145.67;100.00;66521.78;4992227;28;20563;-70
2021/12/24 10:47:22;;;;;;;71.13;10.93;;;;;;;-145.67;100.00;66521.78;5005974;28;20121;-71
2021/12/24 10:50:04;;;;;;;65.25;10.85;;;;;;;-145.67;100.00;66521.78;4991645;28;20034;-71
2021/12/24 10:53:00;;;;;;;61.53;11.30;;;;;;;-145.67;100.00;66521.78;4991696;28;20513;-71
2021/12/24 10:55:39;;;;;;;66.65;11.30;;;;;;;-145.67;100.00;66521.78;5004031;28;20064;-71
2021/12/24 10:58:18;;;;;;;56.65;10.65;;;;;;;-145.67;100.00;66521.78;4998120;28;20382;-71
2021/12/24 11:00:51;;;;;;;59.25;10.68;;;;;;;-145.67;100.00;66521.78;4991692;28;20447;-71
2021/12/24 11:03:22;;;;;;;57.42;11.15;;;;;;;-145.67;100.00;66521.78;4991539;28;20030;-70
2021/12/24 11:05:51;;;;;;;55.50;10.73;;;;;;;-145.67;100.00;66521.78;4992306;28;20808;-73
2021/12/24 11:08:22;;;;;;;61.30;11.57;;;;;;;-145.67;100.00;66521.78;4991171;28;20034;-70
2021/12/24 11:10:54;;;;;;;64.78;11.20;;;;;;;-145.67;100.00;66521.78;5006169;28;20439;-71
2021/12/24 11:13:28;;;;;;;62.15;10.43;;;;;;;-145.67;100.00;66521.78;4990819;28;20760;-70
2021/12/24 11:15:59;;;;;;;50.17;10.95;;;;;;;-145.67;100.00;66521.78;4991445;28;20397;-70
2021/12/24 11:18:33;;;;;;;55.08;11.57;;;;;;;-145.67;100.00;66521.78;4989756;28;20400;-72
2021/12/24 11:21:00;;;;;;;52.05;10.93;;;;;;;-145.67;100.00;66521.78;4993854;28;20048;-71
2021/12/24 11:23:28;;;;;;;73.07;11.68;;;;;;;-145.67;100.00;66521.78;4998262;28;20044;-71
2021/12/24 11:25:56;;;;;;;52.97;11.73;;;;;;;-145.67;100.00;66521.78;4990842;28;20048;-71
2021/12/24 11:28:25;;;;;;;53.65;10.75;;;;;;;-145.67;100.00;66521.78;4990936;28;20056;-71
2021/12/24 11:30:54;;;;;;;51.17;12.07;;;;;;;-145.67;100.00;66521.78;5005637;28;20363;-71
2021/12/24 11:33:23;;;;;;;63.17;11.65;;;;;;;-145.67;100.00;66521.78;4990853;28;20037;-72
2021/12/24 11:35:49;;;;;;;53.83;10.30;;;;;;;-145.67;100.00;66521.78;4994968;28;20034;-71
2021/12/24 11:38:20;;;;;;;59.42;12.32;;;;;;;-145.67;100.00;66521.78;4991383;28;20026;-71
2021/12/24 11:40:51;;;;;;;50.27;10.87;;;;;;;-145.67;100.00;66521.78;4990103;28;20418;-71
2021/12/24 11:43:19;;;;;;;55.85;12.20;;;;;;;-145.67;100.00;66521.78;4995685;28;20032;-71
2021/12/24 11:45:45;;;;;;;54.10;10.95;;;;;;;-145.67;100.00;66521.78;4994000;28;20317;-71
2021/12/24 11:48:12;;;;;;;48.42;10.57;;;;;;;-145.67;100.00;66521.78;4992923;28;20030;-71
2021/12/24 11:50:38;;;;;;;58.15;11.88;;;;;;;-145.67;100.00;66521.78;4991214;28;20041;-72
2021/12/24 11:53:07;;;;;;;57.45;11.30;;;;;;;-145.67;100.00;66521.78;4994503;28;20057;-72
2021/12/24 11:55:41;;;;;;;48.10;10.43;;;;;;;-145.67;100.00;66521.78;5010995;28;20195;-69
2021/12/24 11:58:09;;;;;;;59.78;11.02;;;;;;;-145.67;100.00;66521.78;4995291;28;20040;-72
2021/12/24 12:00:40;;;;;;;61.13;12.13;;;;;;;-145.67;100.00;66521.78;5008208;28;20033;-71
2021/12/24 12:03:10;;;;;;;58.95;11.80;;;;;;;-145.67;100.00;66521.78;5009028;28;20064;-71
2021/12/24 12:05:41;;;;;;;43.65;10.05;;;;;;;-145.67;100.00;66521.78;4992722;28;20203;-72
2021/12/24 12:08:25;;;;;;;31.47;5.03;;;;;;;-145.67;100.00;66521.78;5009725;28;20047;-72
2021/12/24 12:11:04;;;;;;;34.90;6.20;;;;;;;-145.67;100.00;66521.78;4980225;28;20304;-71
2021/12/24 12:13:47;;;;;;;30.55;4.40;;;;;;;-145.67;100.00;66521.78;4992906;28;20470;-71
2021/12/24 12:16:22;;;;;;;23.25;3.20;;;;;;;-145.67;100.00;66521.78;5009068;28;20069;-71
2021/12/24 12:19:02;;;;;;;22.77;3.42;;;;;;;-145.67;100.00;66521.78;4991294;28;20658;-71
2021/12/24 12:21:42;;;;;;;30.70;3.63;;;;;;;-145.67;100.00;66521.78;4992385;28;20045;-72
2021/12/24 12:26:50;;;;;;;20.88;2.60;;;;;;;-145.67;100.00;66521.78;4995299;28;20260;-70
2021/12/24 12:29:42;;;;;;;29.45;2.70;;;;;;;-145.67;100.00;66521.78;4997876;28;20275;-72
2021/12/24 12:32:17;;;;;;;34.95;3.22;;;;;;;-145.67;100.00;66521.78;4991988;28;20033;-72
2021/12/24 12:34:42;;;;;;;32.28;3.42;;;;;;;-145.67;100.00;66521.78;5007225;28;20397;-72
2021/12/24 12:37:18;;;;;;;31.58;4.05;;;;;;;-145.67;100.00;66521.78;4992249;28;20045;-73
2021/12/24 12:39:46;;;;;;;29.38;3.72;;;;;;;-145.67;100.00;66521.78;4992464;28;20116;-73
2021/12/24 12:42:15;;;;;;;29.13;3.90;;;;;;;-145.67;100.00;66521.78;4969083;28;20038;-71